Blue Star 1 — SWET — position and weather

sailwx.info

Track history (hours):
 
Tides and Currents Weather Stations Pressure Air Temp Water Temp Dewpoint Dewpoint Depression Visibility Wind Speed Wind Dir Waves Ship Positions

Blue Star 1

Last reported at 2016-Feb-13 04:34 UTC. Time now 2016-Feb-13 04:37 UTC.
Position N 37°56' E 023°38'.

Length 177 m; draft 6.5 m.

Type: Passenger vessel. MMSI: 239710000.

Date/timePositionNaut miles runAvg speedWind from/ knotsBaromVisibWave heightAir tempDewpointWater temp
2016-Feb-13 04:34N 37°56' E 023°38'1919.1
2016-Feb-13 03:33N 37°40' E 023°49'2120.1
2016-Feb-13 02:31N 37°43' E 024°15'19 0.6
2016-Feb-11 19:28N 37°37' E 023°52'1718.1
2016-Feb-11 18:33N 37°49' E 023°37'7 7.4
2016-Feb-11 17:34N 37°56' E 023°38'0 0.0
2016-Feb-11 16:33N 37°56' E 023°38'5 4.5
2016-Feb-11 15:34N 37°52' E 023°39'19 0.4
2016-Feb-09 19:31N 37°38' E 023°53'1717.9
2016-Feb-09 18:34N 37°48' E 023°36'8 8.3
2016-Feb-09 17:33N 37°56' E 023°38'0 0.0
2016-Feb-09 16:27N 37°56' E 023°38'0 0.0
2016-Feb-09 15:33N 37°56' E 023°38'0 0.0
2016-Feb-09 14:33N 37°56' E 023°38'0 0.0
2016-Feb-09 13:18N 37°56' E 023°38'0 0.0
2016-Feb-09 12:33N 37°56' E 023°38'0 0.0
2016-Feb-09 11:33N 37°56' E 023°38'0 0.0
2016-Feb-09 10:18N 37°56' E 023°38'0 0.0
2016-Feb-09 09:33N 37°56' E 023°38'0 0.0
2016-Feb-09 08:32N 37°56' E 023°38'0 0.0
2016-Feb-09 05:33N 37°56' E 023°38'1514.9
2016-Feb-09 04:33N 37°42' E 023°45'2519.7
2016-Feb-09 03:19N 37°44' E 024°16'18 0.6
2016-Feb-07 21:33N 37°37' E 023°55'1817.6
2016-Feb-07 20:33N 37°49' E 023°37'8 7.8
2016-Feb-07 19:33N 37°56' E 023°38'0 0.0
2016-Feb-07 18:33N 37°56' E 023°38'8 8.0
2016-Feb-07 17:34N 37°49' E 023°40'2422.6
2016-Feb-07 16:29N 37°38' E 024°08'2 0.1
2016-Feb-06 21:32N 37°37' E 024°05'2323.1
2016-Feb-06 20:34N 37°46' E 023°39'1110.5
2016-Feb-06 19:33N 37°56' E 023°38'0 0.0
2016-Feb-06 18:33N 37°56' E 023°38'0 0.0
2016-Feb-06 17:33N 37°56' E 023°38'0 0.0
2016-Feb-06 16:33N 37°56' E 023°38'0 0.0
2016-Feb-06 15:33N 37°56' E 023°38'0 0.0
2016-Feb-06 14:33N 37°56' E 023°38'0 0.0
2016-Feb-06 13:33N 37°56' E 023°38'0 0.0
2016-Feb-06 12:33N 37°56' E 023°38'0 0.0
2016-Feb-06 11:33N 37°56' E 023°38'0 0.0
2016-Feb-06 10:33N 37°56' E 023°38'0 0.0
2016-Feb-06 09:33N 37°56' E 023°38'0 0.0
2016-Feb-06 08:33N 37°56' E 023°38'0 0.0
2016-Feb-06 07:33N 37°56' E 023°38'0 0.0
2016-Feb-06 06:33N 37°56' E 023°38'0 0.0
2016-Feb-06 05:33N 37°56' E 023°38'0 0.0
2016-Feb-06 04:33N 37°56' E 023°38'0 0.0
2016-Feb-06 03:33N 37°56' E 023°38'0 0.0
2016-Feb-06 02:33N 37°56' E 023°38'0 0.0
2016-Feb-06 01:33N 37°56' E 023°38'0 0.0
2016-Feb-06 00:33N 37°56' E 023°38'0 0.0
2016-Feb-05 23:33N 37°56' E 023°38'0 0.0
2016-Feb-05 22:33N 37°56' E 023°38'0 0.0
2016-Feb-05 21:33N 37°56' E 023°38'0 0.0
2016-Feb-05 20:33N 37°56' E 023°38'0 0.0
2016-Feb-05 19:33N 37°56' E 023°38'0 0.0
2016-Feb-05 18:33N 37°56' E 023°38'0 0.0
2016-Feb-05 17:33N 37°56' E 023°38'0 0.0
2016-Feb-05 16:33N 37°56' E 023°38'0 0.0
2016-Feb-05 15:33N 37°56' E 023°38'0 0.0
2016-Feb-05 14:33N 37°56' E 023°38'0 0.0
2016-Feb-05 13:33N 37°56' E 023°38'0 0.0
2016-Feb-05 12:33N 37°56' E 023°38'0 0.0
2016-Feb-05 11:33N 37°56' E 023°38'0 0.0
2016-Feb-05 10:33N 37°56' E 023°38'0 0.0
2016-Feb-05 09:33N 37°56' E 023°38'0 0.0
2016-Feb-05 08:33N 37°56' E 023°38'0 0.0
2016-Feb-05 07:33N 37°56' E 023°38'0 0.0
2016-Feb-05 06:33N 37°56' E 023°38'0 0.0
2016-Feb-05 05:33N 37°56' E 023°38'0 0.0
2016-Feb-05 04:33N 37°56' E 023°38'0 0.0
2016-Feb-05 03:33N 37°56' E 023°38'0 0.0
2016-Feb-05 02:33N 37°56' E 023°38'0 0.0
2016-Feb-05 01:33N 37°56' E 023°38'0 0.0
2016-Feb-05 00:33N 37°56' E 023°38'0 0.0
2016-Feb-04 23:33N 37°56' E 023°38'0 0.0
2016-Feb-04 22:33N 37°56' E 023°38'0 0.0
2016-Feb-04 21:33N 37°56' E 023°38'0 0.0
2016-Feb-04 20:33N 37°56' E 023°38'0 0.0
2016-Feb-04 19:33N 37°56' E 023°38'0 0.0
2016-Feb-04 18:33N 37°56' E 023°38'0 0.0
2016-Feb-04 17:33N 37°56' E 023°38'0 0.0
2016-Feb-04 16:33N 37°56' E 023°38'0 0.0
2016-Feb-04 15:33N 37°56' E 023°38'0 0.0
2016-Feb-04 14:33N 37°56' E 023°38'0 0.0
2016-Feb-04 13:33N 37°56' E 023°38'0 0.0
2016-Feb-04 12:33N 37°56' E 023°38'0 0.0
2016-Feb-04 11:33N 37°56' E 023°38'0 0.0
2016-Feb-04 10:33N 37°56' E 023°38'0 0.0
2016-Feb-04 09:33N 37°56' E 023°38'0 0.0
2016-Feb-04 08:33N 37°56' E 023°38'0 0.0
2016-Feb-04 07:33N 37°56' E 023°38'0 0.0
2016-Feb-04 06:33N 37°56' E 023°38'0 0.0
2016-Feb-04 05:32N 37°56' E 023°38'1 0.5
2016-Feb-04 04:33N 37°56' E 023°37'1817.5
2016-Feb-04 03:33N 37°41' E 023°47'2419.5
2016-Feb-04 02:20N 37°44' E 024°17'  
Track history (hours):
 
Tides and Currents Weather Stations Pressure Air Temp Water Temp Dewpoint Dewpoint Depression Visibility Wind Speed Wind Dir Waves Ship Positions

Blue Star 1

Last reported at 2016-Feb-13 04:34 UTC. Time now 2016-Feb-13 04:37 UTC.
Position N 37°56' E 023°38'.

Length 177 m; draft 6.5 m.

Type: Passenger vessel. MMSI: 239710000.

Date/timePositionNaut miles runAvg speedWind from/ knotsBaromVisibWave heightAir tempDewpointWater temp
2016-Feb-13 04:34N 37°56' E 023°38'1919.1
2016-Feb-13 03:33N 37°40' E 023°49'2120.1
2016-Feb-13 02:31N 37°43' E 024°15'19 0.6
2016-Feb-11 19:28N 37°37' E 023°52'1718.1
2016-Feb-11 18:33N 37°49' E 023°37'7 7.4
2016-Feb-11 17:34N 37°56' E 023°38'0 0.0
2016-Feb-11 16:33N 37°56' E 023°38'5 4.5
2016-Feb-11 15:34N 37°52' E 023°39'19 0.4
2016-Feb-09 19:31N 37°38' E 023°53'1717.9
2016-Feb-09 18:34N 37°48' E 023°36'8 8.3
2016-Feb-09 17:33N 37°56' E 023°38'0 0.0
2016-Feb-09 16:27N 37°56' E 023°38'0 0.0
2016-Feb-09 15:33N 37°56' E 023°38'0 0.0
2016-Feb-09 14:33N 37°56' E 023°38'0 0.0
2016-Feb-09 13:18N 37°56' E 023°38'0 0.0
2016-Feb-09 12:33N 37°56' E 023°38'0 0.0
2016-Feb-09 11:33N 37°56' E 023°38'0 0.0
2016-Feb-09 10:18N 37°56' E 023°38'0 0.0
2016-Feb-09 09:33N 37°56' E 023°38'0 0.0
2016-Feb-09 08:32N 37°56' E 023°38'0 0.0
2016-Feb-09 05:33N 37°56' E 023°38'1514.9
2016-Feb-09 04:33N 37°42' E 023°45'2519.7
2016-Feb-09 03:19N 37°44' E 024°16'18 0.6
2016-Feb-07 21:33N 37°37' E 023°55'1817.6
2016-Feb-07 20:33N 37°49' E 023°37'8 7.8
2016-Feb-07 19:33N 37°56' E 023°38'0 0.0
2016-Feb-07 18:33N 37°56' E 023°38'8 8.0
2016-Feb-07 17:34N 37°49' E 023°40'2422.6
2016-Feb-07 16:29N 37°38' E 024°08'2 0.1
2016-Feb-06 21:32N 37°37' E 024°05'2323.1
2016-Feb-06 20:34N 37°46' E 023°39'1110.5
2016-Feb-06 19:33N 37°56' E 023°38'0 0.0
2016-Feb-06 18:33N 37°56' E 023°38'0 0.0
2016-Feb-06 17:33N 37°56' E 023°38'0 0.0
2016-Feb-06 16:33N 37°56' E 023°38'0 0.0
2016-Feb-06 15:33N 37°56' E 023°38'0 0.0
2016-Feb-06 14:33N 37°56' E 023°38'0 0.0
2016-Feb-06 13:33N 37°56' E 023°38'0 0.0
2016-Feb-06 12:33N 37°56' E 023°38'0 0.0
2016-Feb-06 11:33N 37°56' E 023°38'0 0.0
2016-Feb-06 10:33N 37°56' E 023°38'0 0.0
2016-Feb-06 09:33N 37°56' E 023°38'0 0.0
2016-Feb-06 08:33N 37°56' E 023°38'0 0.0
2016-Feb-06 07:33N 37°56' E 023°38'0 0.0
2016-Feb-06 06:33N 37°56' E 023°38'0 0.0
2016-Feb-06 05:33N 37°56' E 023°38'0 0.0
2016-Feb-06 04:33N 37°56' E 023°38'0 0.0
2016-Feb-06 03:33N 37°56' E 023°38'0 0.0
2016-Feb-06 02:33N 37°56' E 023°38'0 0.0
2016-Feb-06 01:33N 37°56' E 023°38'0 0.0
2016-Feb-06 00:33N 37°56' E 023°38'0 0.0
2016-Feb-05 23:33N 37°56' E 023°38'0 0.0
2016-Feb-05 22:33N 37°56' E 023°38'0 0.0
2016-Feb-05 21:33N 37°56' E 023°38'0 0.0
2016-Feb-05 20:33N 37°56' E 023°38'0 0.0
2016-Feb-05 19:33N 37°56' E 023°38'0 0.0
2016-Feb-05 18:33N 37°56' E 023°38'0 0.0
2016-Feb-05 17:33N 37°56' E 023°38'0 0.0
2016-Feb-05 16:33N 37°56' E 023°38'0 0.0
2016-Feb-05 15:33N 37°56' E 023°38'0 0.0
2016-Feb-05 14:33N 37°56' E 023°38'0 0.0
2016-Feb-05 13:33N 37°56' E 023°38'0 0.0
2016-Feb-05 12:33N 37°56' E 023°38'0 0.0
2016-Feb-05 11:33N 37°56' E 023°38'0 0.0
2016-Feb-05 10:33N 37°56' E 023°38'0 0.0
2016-Feb-05 09:33N 37°56' E 023°38'0 0.0
2016-Feb-05 08:33N 37°56' E 023°38'0 0.0
2016-Feb-05 07:33N 37°56' E 023°38'0 0.0
2016-Feb-05 06:33N 37°56' E 023°38'0 0.0
2016-Feb-05 05:33N 37°56' E 023°38'0 0.0
2016-Feb-05 04:33N 37°56' E 023°38'0 0.0
2016-Feb-05 03:33N 37°56' E 023°38'0 0.0
2016-Feb-05 02:33N 37°56' E 023°38'0 0.0
2016-Feb-05 01:33N 37°56' E 023°38'0 0.0
2016-Feb-05 00:33N 37°56' E 023°38'0 0.0
2016-Feb-04 23:33N 37°56' E 023°38'0 0.0
2016-Feb-04 22:33N 37°56' E 023°38'0 0.0
2016-Feb-04 21:33N 37°56' E 023°38'0 0.0
2016-Feb-04 20:33N 37°56' E 023°38'0 0.0
2016-Feb-04 19:33N 37°56' E 023°38'0 0.0
2016-Feb-04 18:33N 37°56' E 023°38'0 0.0
2016-Feb-04 17:33N 37°56' E 023°38'0 0.0
2016-Feb-04 16:33N 37°56' E 023°38'0 0.0
2016-Feb-04 15:33N 37°56' E 023°38'0 0.0
2016-Feb-04 14:33N 37°56' E 023°38'0 0.0
2016-Feb-04 13:33N 37°56' E 023°38'0 0.0
2016-Feb-04 12:33N 37°56' E 023°38'0 0.0
2016-Feb-04 11:33N 37°56' E 023°38'0 0.0
2016-Feb-04 10:33N 37°56' E 023°38'0 0.0
2016-Feb-04 09:33N 37°56' E 023°38'0 0.0
2016-Feb-04 08:33N 37°56' E 023°38'0 0.0
2016-Feb-04 07:33N 37°56' E 023°38'0 0.0
2016-Feb-04 06:33N 37°56' E 023°38'0 0.0
2016-Feb-04 05:32N 37°56' E 023°38'1 0.5
2016-Feb-04 04:33N 37°56' E 023°37'1817.5
2016-Feb-04 03:33N 37°41' E 023°47'2419.5
2016-Feb-04 02:20N 37°44' E 024°17'  

Dump ship's entire track history